Time;durP1;ratioP1;P1;durP2;ratioP2;P2;SDS_P1;SDS_P2;PMS_P1;PMS_P2;Temp;Humidity;BMP_temperature;BMP_pressure;BME280_temperature;BME280_humidity;BME280_pressure;Samples;Min_cycle;Max_cycle;Signal;HPM_P1;HPM_P2
2023/12/14 00:01:20;;;;;;;;;;;8.00;99.90;;;;;;5027627;28;19912;-79
2023/12/14 00:03:45;;;;;;;;;;;7.80;99.90;;;;;;5045669;28;20374;-79
2023/12/14 00:06:11;;;;;;;;;;;7.80;99.90;;;;;;5045776;28;19909;-79
2023/12/14 00:08:36;;;;;;;;;;;7.80;99.90;;;;;;5046043;28;19909;-78
2023/12/14 00:11:09;;;;;;;;;;;7.90;99.90;;;;;;5045188;28;20036;-79
2023/12/14 00:13:35;;;;;;;;;;;7.90;99.90;;;;;;5043227;28;19955;-80
2023/12/14 00:16:01;;;;;;;;;;;7.90;99.90;;;;;;5045236;28;19952;-81
2023/12/14 00:18:26;;;;;;;;;;;7.80;99.90;;;;;;5045815;28;20327;-81
2023/12/14 00:20:55;;;;;;;;;;;7.80;99.90;;;;;;5061403;28;19966;-81
2023/12/14 00:23:22;;;;;;;;;;;7.70;99.90;;;;;;5049189;28;20692;-80
2023/12/14 00:25:47;;;;;;;;;;;7.50;99.90;;;;;;5048033;28;19913;-80
2023/12/14 00:28:13;;;;;;;;;;;7.60;99.90;;;;;;5048713;28;19920;-79
2023/12/14 00:30:39;;;;;;;;;;;7.40;99.90;;;;;;5054795;28;19917;-79
2023/12/14 00:33:05;;;;;;;;;;;7.50;99.90;;;;;;5008756;28;19968;-79
2023/12/14 00:35:30;;;;;;;;;;;7.60;99.90;;;;;;5006482;28;19910;-80
2023/12/14 00:37:56;;;;;;;;;;;7.60;99.90;;;;;;5008564;28;19937;-79
2023/12/14 00:40:21;;;;;;;;;;;7.60;99.90;;;;;;5008556;28;19909;-79
2023/12/14 00:42:47;;;;;;;;;;;7.60;99.90;;;;;;5008621;28;19917;-79
2023/12/14 00:45:12;;;;;;;;;;;7.60;99.90;;;;;;5008316;28;19963;-79
2023/12/14 00:47:38;;;;;;;;;;;7.50;99.90;;;;;;5007293;28;20024;-78
2023/12/14 00:50:04;;;;;;;;;;;7.30;99.90;;;;;;5008049;28;19913;-78
2023/12/14 00:52:29;;;;;;;;;;;7.40;99.90;;;;;;5008022;28;19922;-78
2023/12/14 00:54:55;;;;;;;;;;;7.50;99.90;;;;;;5008396;28;19920;-79
2023/12/14 00:57:20;;;;;;;;;;;7.40;99.90;;;;;;5007052;28;19913;-79
2023/12/14 00:59:46;;;;;;;;;;;7.40;99.90;;;;;;5008573;28;19917;-78
2023/12/14 01:02:12;;;;;;;;;;;7.40;99.90;;;;;;5005279;28;19917;-78
2023/12/14 01:04:37;;;;;;;;;;;7.30;99.90;;;;;;5006017;28;19917;-78
2023/12/14 01:07:03;;;;;;;;;;;7.10;99.90;;;;;;5007889;28;19914;-78
2023/12/14 01:09:29;;;;;;;;;;;7.00;99.90;;;;;;5008206;28;19963;-78
2023/12/14 01:11:54;;;;;;;;;;;7.00;99.90;;;;;;5008922;28;20449;-78
2023/12/14 01:14:20;;;;;;;;;;;7.20;99.90;;;;;;5007511;28;19913;-78
2023/12/14 01:16:45;;;;;;;;;;;7.30;99.90;;;;;;5004309;28;19920;-79
2023/12/14 01:19:11;;;;;;;;;;;7.30;99.90;;;;;;5008131;28;19917;-79
2023/12/14 01:21:36;;;;;;;;;;;7.40;99.90;;;;;;5005190;28;19920;-79
2023/12/14 01:24:02;;;;;;;;;;;7.50;99.90;;;;;;5007363;28;19921;-78
2023/12/14 01:26:27;;;;;;;;;;;7.60;99.90;;;;;;5008063;28;19913;-77
2023/12/14 01:28:53;;;;;;;;;;;7.50;99.90;;;;;;5008005;28;19913;-78
2023/12/14 01:31:20;;;;;;;;;;;7.60;99.90;;;;;;5030829;28;19975;-78
2023/12/14 01:33:46;;;;;;;;;;;7.50;99.90;;;;;;5047253;28;19912;-78
2023/12/14 01:36:11;;;;;;;;;;;7.60;99.90;;;;;;5047759;28;20019;-78
2023/12/14 01:38:37;;;;;;;;;;;7.50;99.90;;;;;;5047228;28;20011;-78
2023/12/14 01:41:03;;;;;;;;;;;7.50;99.90;;;;;;5047534;28;19938;-78
2023/12/14 01:43:29;;;;;;;;;;;7.50;99.90;;;;;;5047759;28;19920;-78
2023/12/14 01:45:54;;;;;;;;;;;7.60;99.90;;;;;;5046979;28;19918;-78
2023/12/14 01:48:20;;;;;;;;;;;7.50;99.90;;;;;;5047566;28;19912;-78
2023/12/14 01:50:45;;;;;;;;;;;7.60;99.90;;;;;;5046351;28;19923;-77
2023/12/14 01:53:11;;;;;;;;;;;7.50;99.90;;;;;;5047493;28;19913;-78
2023/12/14 01:55:37;;;;;;;;;;;7.50;99.90;;;;;;5046649;28;19917;-78
2023/12/14 01:58:02;;;;;;;;;;;7.50;99.90;;;;;;5042194;28;19912;-78
2023/12/14 02:01:00;;;;;;;;;;;7.40;99.90;;;;;;5047094;28;19916;-79
2023/12/14 02:03:26;;;;;;;;;;;7.40;99.90;;;;;;5015804;28;19979;-78
2023/12/14 02:05:51;;;;;;;;;;;7.30;99.90;;;;;;5046954;28;19912;-77
2023/12/14 02:08:17;;;;;;;;;;;7.40;99.90;;;;;;5030641;28;19948;-78
2023/12/14 02:10:42;;;;;;;;;;;7.40;99.90;;;;;;5046824;28;19952;-78
2023/12/14 02:13:08;;;;;;;;;;;7.40;99.90;;;;;;5047122;28;19913;-78
2023/12/14 02:15:33;;;;;;;;;;;7.40;99.90;;;;;;5046650;28;19924;-78
2023/12/14 02:17:59;;;;;;;;;;;7.50;99.90;;;;;;5046726;28;19912;-78
2023/12/14 02:20:24;;;;;;;;;;;7.30;99.90;;;;;;5046333;28;19919;-78
2023/12/14 02:22:54;;;;;;;;;;;7.20;99.90;;;;;;5028778;28;19916;-77
2023/12/14 02:25:20;;;;;;;;;;;7.10;99.90;;;;;;5046129;28;19912;-77
2023/12/14 02:27:45;;;;;;;;;;;7.10;99.90;;;;;;5046051;28;20534;-78
2023/12/14 02:30:12;;;;;;;;;;;6.90;99.90;;;;;;5040259;28;20473;-78
2023/12/14 02:32:41;;;;;;;;;;;7.00;99.90;;;;;;5046136;28;20383;-78
2023/12/14 02:35:06;;;;;;;;;;;7.00;99.90;;;;;;5045719;28;19909;-77
2023/12/14 02:37:32;;;;;;;;;;;6.90;99.90;;;;;;5046340;28;19920;-77
2023/12/14 02:39:58;;;;;;;;;;;6.80;99.90;;;;;;5045917;28;19909;-78
2023/12/14 02:42:24;;;;;;;;;;;6.90;99.90;;;;;;5045489;28;19916;-77
2023/12/14 02:44:49;;;;;;;;;;;6.80;99.90;;;;;;5043250;28;19935;-77
2023/12/14 02:47:15;;;;;;;;;;;6.60;99.90;;;;;;5046253;28;19970;-78
2023/12/14 02:49:41;;;;;;;;;;;6.50;99.90;;;;;;5029604;28;19913;-79
2023/12/14 02:52:06;;;;;;;;;;;6.40;99.90;;;;;;5029137;28;19912;-77
2023/12/14 02:54:32;;;;;;;;;;;6.30;99.90;;;;;;5045947;28;20641;-77
2023/12/14 02:56:57;;;;;;;;;;;6.20;99.90;;;;;;5028759;28;19919;-77
2023/12/14 02:59:23;;;;;;;;;;;6.10;99.90;;;;;;5045879;28;19913;-78
2023/12/14 03:01:48;;;;;;;;;;;6.10;99.90;;;;;;5045543;28;19947;-77
2023/12/14 03:04:14;;;;;;;;;;;6.30;99.90;;;;;;5045259;28;19917;-77
2023/12/14 03:06:39;;;;;;;;;;;6.50;99.90;;;;;;5028344;28;19924;-77
2023/12/14 03:09:05;;;;;;;;;;;6.60;99.90;;;;;;5045722;28;19913;-78
2023/12/14 03:11:30;;;;;;;;;;;6.70;99.90;;;;;;5045919;28;20435;-77
2023/12/14 03:13:56;;;;;;;;;;;6.80;99.90;;;;;;5030058;28;19962;-77
2023/12/14 03:16:21;;;;;;;;;;;6.80;99.90;;;;;;5030984;28;19962;-78
2023/12/14 03:18:52;;;;;;;;;;;6.90;99.90;;;;;;5046939;28;19966;-77
2023/12/14 03:21:17;;;;;;;;;;;6.90;99.90;;;;;;5043883;28;20634;-78
2023/12/14 03:23:43;;;;;;;;;;;6.90;99.90;;;;;;5045694;28;19948;-77
2023/12/14 03:26:08;;;;;;;;;;;7.00;99.90;;;;;;5046383;28;19912;-77
2023/12/14 03:28:34;;;;;;;;;;;6.90;99.90;;;;;;5046216;28;19920;-77
2023/12/14 03:31:00;;;;;;;;;;;6.90;99.90;;;;;;5045618;28;19924;-77
2023/12/14 03:33:26;;;;;;;;;;;7.00;99.90;;;;;;5046253;28;19995;-77
2023/12/14 03:35:51;;;;;;;;;;;6.90;99.90;;;;;;5046041;28;19916;-77
2023/12/14 03:38:17;;;;;;;;;;;6.90;99.90;;;;;;5046071;28;19920;-78
2023/12/14 03:40:42;;;;;;;;;;;6.80;99.90;;;;;;5045819;28;19999;-77
2023/12/14 03:43:08;;;;;;;;;;;6.60;99.90;;;;;;5045702;28;20377;-77
2023/12/14 03:45:33;;;;;;;;;;;6.70;99.90;;;;;;5045731;28;19912;-78
2023/12/14 03:47:59;;;;;;;;;;;6.70;99.90;;;;;;5045140;28;19920;-77
2023/12/14 03:50:24;;;;;;;;;;;6.60;99.90;;;;;;5045182;28;19920;-77
2023/12/14 03:52:50;;;;;;;;;;;6.70;99.90;;;;;;5044855;28;19913;-77
2023/12/14 03:55:15;;;;;;;;;;;6.70;99.90;;;;;;5049684;28;19912;-77
2023/12/14 03:57:41;;;;;;;;;;;6.80;99.90;;;;;;5048612;28;19963;-78
2023/12/14 04:00:09;;;;;;;;;;;6.80;99.90;;;;;;5049238;28;19912;-78
2023/12/14 04:02:35;;;;;;;;;;;6.90;99.90;;;;;;5049295;28;19917;-78
2023/12/14 04:05:00;;;;;;;;;;;6.80;99.90;;;;;;5049371;28;19919;-77
2023/12/14 04:07:26;;;;;;;;;;;6.70;99.90;;;;;;5049206;28;19913;-78
2023/12/14 04:09:51;;;;;;;;;;;6.80;99.90;;;;;;5032167;28;19973;-79
2023/12/14 04:12:17;;;;;;;;;;;6.80;99.90;;;;;;5049427;28;19913;-77
2023/12/14 04:14:43;;;;;;;;;;;6.80;99.90;;;;;;5048648;28;19935;-78
2023/12/14 04:17:08;;;;;;;;;;;6.80;99.90;;;;;;5048950;28;19919;-77
2023/12/14 04:19:34;;;;;;;;;;;6.70;99.90;;;;;;5048720;28;19956;-77
2023/12/14 04:21:59;;;;;;;;;;;6.60;99.90;;;;;;5048809;28;19913;-78
2023/12/14 04:24:25;;;;;;;;;;;6.70;99.90;;;;;;5030764;28;20399;-78
2023/12/14 04:26:50;;;;;;;;;;;6.60;99.90;;;;;;5045887;28;20394;-78
2023/12/14 04:29:16;;;;;;;;;;;6.60;99.90;;;;;;5048013;28;20374;-78
2023/12/14 04:31:41;;;;;;;;;;;6.60;99.90;;;;;;5048497;28;19929;-78
2023/12/14 04:34:11;;;;;;;;;;;6.70;99.90;;;;;;5048075;28;19995;-78
2023/12/14 04:36:37;;;;;;;;;;;6.70;99.90;;;;;;5043469;28;19959;-78
2023/12/14 04:39:03;;;;;;;;;;;6.70;99.90;;;;;;5048342;28;19978;-77
2023/12/14 04:41:28;;;;;;;;;;;6.80;99.90;;;;;;5047447;28;19974;-78
2023/12/14 04:43:54;;;;;;;;;;;6.80;99.90;;;;;;5047553;28;20587;-78
2023/12/14 04:46:19;;;;;;;;;;;6.60;99.90;;;;;;5047617;28;19931;-78
2023/12/14 04:48:45;;;;;;;;;;;6.60;99.90;;;;;;5047589;28;19917;-78
2023/12/14 04:51:11;;;;;;;;;;;6.80;99.90;;;;;;5047964;28;19912;-78
2023/12/14 04:53:37;;;;;;;;;;;6.80;99.90;;;;;;5048060;28;19948;-78
2023/12/14 04:56:03;;;;;;;;;;;6.90;99.90;;;;;;5047818;28;20474;-79
2023/12/14 04:58:28;;;;;;;;;;;6.90;99.90;;;;;;5046401;28;19975;-78
2023/12/14 05:00:54;;;;;;;;;;;6.90;99.90;;;;;;5047719;28;20296;-79
2023/12/14 05:03:19;;;;;;;;;;;6.70;99.90;;;;;;5048288;28;19920;-78
2023/12/14 05:05:45;;;;;;;;;;;6.80;99.90;;;;;;5047238;28;19913;-79
2023/12/14 05:08:10;;;;;;;;;;;6.80;99.90;;;;;;5048412;28;19913;-79
2023/12/14 05:10:36;;;;;;;;;;;6.90;99.90;;;;;;5031437;28;19920;-78
2023/12/14 05:13:01;;;;;;;;;;;6.90;99.90;;;;;;5029860;28;20390;-79
2023/12/14 05:15:27;;;;;;;;;;;6.90;99.90;;;;;;5047885;28;20027;-79
2023/12/14 05:17:52;;;;;;;;;;;6.90;99.90;;;;;;5048068;28;19934;-79
2023/12/14 05:20:19;;;;;;;;;;;6.90;99.90;;;;;;5047575;28;20848;-79
2023/12/14 05:22:44;;;;;;;;;;;6.70;99.90;;;;;;5048586;28;19923;-79
2023/12/14 05:25:10;;;;;;;;;;;6.80;99.90;;;;;;5048198;28;19913;-79
2023/12/14 05:27:35;;;;;;;;;;;6.80;99.90;;;;;;5047604;28;19912;-78
2023/12/14 05:30:02;;;;;;;;;;;6.70;99.90;;;;;;5047878;28;20484;-79
2023/12/14 05:32:28;;;;;;;;;;;6.80;99.90;;;;;;5047789;28;20442;-79
2023/12/14 05:34:53;;;;;;;;;;;6.90;99.90;;;;;;5031640;28;19935;-79
2023/12/14 05:37:19;;;;;;;;;;;6.90;99.90;;;;;;5047864;28;20375;-81
2023/12/14 05:39:45;;;;;;;;;;;6.90;99.90;;;;;;5047304;28;19920;-84
2023/12/14 05:42:10;;;;;;;;;;;6.90;99.90;;;;;;5047807;28;19924;-79
2023/12/14 05:44:36;;;;;;;;;;;6.90;99.90;;;;;;5047536;28;20490;-81
2023/12/14 05:47:02;;;;;;;;;;;6.70;99.90;;;;;;5048093;28;20291;-84
2023/12/14 05:49:27;;;;;;;;;;;6.60;99.90;;;;;;5042515;28;20015;-82
2023/12/14 05:51:53;;;;;;;;;;;6.60;99.90;;;;;;5040304;28;19927;-80
2023/12/14 05:54:18;;;;;;;;;;;6.60;99.90;;;;;;5029228;28;19913;-81
2023/12/14 05:56:44;;;;;;;;;;;6.50;99.90;;;;;;5045311;28;20023;-81
2023/12/14 05:59:09;;;;;;;;;;;6.60;99.90;;;;;;5046931;28;19916;-80
2023/12/14 06:01:35;;;;;;;;;;;6.60;99.90;;;;;;5041288;28;19985;-81
2023/12/14 06:04:02;;;;;;;;;;;6.60;99.90;;;;;;5032467;28;19916;-81
2023/12/14 06:06:27;;;;;;;;;;;6.50;99.90;;;;;;5045743;28;19920;-80
2023/12/14 06:08:53;;;;;;;;;;;6.50;99.90;;;;;;5045165;28;19913;-81
2023/12/14 06:11:19;;;;;;;;;;;6.50;99.90;;;;;;5044474;28;19984;-81
2023/12/14 06:13:45;;;;;;;;;;;6.60;99.90;;;;;;5046146;28;19919;-80
2023/12/14 06:16:12;;;;;;;;;;;6.60;99.90;;;;;;5028634;28;19913;-79
2023/12/14 06:18:41;;;;;;;;;;;6.40;99.90;;;;;;5046296;28;19984;-79
2023/12/14 06:21:07;;;;;;;;;;;6.50;99.90;;;;;;5045522;28;20588;-79
2023/12/14 06:23:32;;;;;;;;;;;6.40;99.90;;;;;;5046665;28;20013;-80
2023/12/14 06:25:58;;;;;;;;;;;6.30;99.90;;;;;;5029744;28;19912;-79
2023/12/14 06:28:24;;;;;;;;;;;6.40;99.90;;;;;;5046583;28;20027;-77
2023/12/14 06:30:50;;;;;;;;;;;6.60;99.90;;;;;;5045499;28;20028;-78
2023/12/14 06:33:15;;;;;;;;;;;6.60;99.90;;;;;;5044524;28;20003;-78
2023/12/14 06:35:41;;;;;;;;;;;6.60;99.90;;;;;;5040132;28;19913;-78
2023/12/14 06:38:07;;;;;;;;;;;6.60;99.90;;;;;;5058689;28;19966;-77
2023/12/14 06:40:32;;;;;;;;;;;6.50;99.90;;;;;;5045651;28;20427;-78
2023/12/14 06:42:58;;;;;;;;;;;6.60;99.90;;;;;;5042620;28;19952;-79
2023/12/14 06:45:23;;;;;;;;;;;6.50;99.90;;;;;;5042275;28;19912;-77
2023/12/14 06:47:49;;;;;;;;;;;6.40;99.90;;;;;;5045325;28;19916;-78
2023/12/14 06:50:15;;;;;;;;;;;6.20;99.90;;;;;;5043654;28;20449;-79
2023/12/14 06:52:40;;;;;;;;;;;6.10;99.90;;;;;;5028707;28;20130;-79
2023/12/14 06:55:07;;;;;;;;;;;5.90;99.90;;;;;;5045379;28;19916;-78
2023/12/14 06:57:32;;;;;;;;;;;6.10;99.90;;;;;;5041184;28;19912;-78
2023/12/14 06:59:58;;;;;;;;;;;6.20;99.90;;;;;;5046399;28;19919;-79
2023/12/14 07:02:23;;;;;;;;;;;6.30;99.90;;;;;;5029316;28;19936;-80
2023/12/14 07:04:49;;;;;;;;;;;6.30;99.90;;;;;;5046171;28;20584;-80
2023/12/14 07:07:15;;;;;;;;;;;6.20;99.90;;;;;;5046832;28;19912;-78
2023/12/14 07:09:40;;;;;;;;;;;6.40;99.90;;;;;;5028593;28;19950;-79
2023/12/14 07:12:06;;;;;;;;;;;6.50;99.90;;;;;;5046761;28;19909;-79
2023/12/14 07:14:31;;;;;;;;;;;6.40;99.90;;;;;;5045926;28;19917;-81
2023/12/14 07:16:57;;;;;;;;;;;6.50;99.90;;;;;;5046136;28;19912;-83
2023/12/14 07:19:23;;;;;;;;;;;6.60;99.90;;;;;;5029408;28;20663;-86
2023/12/14 07:21:48;;;;;;;;;;;6.70;99.90;;;;;;5046031;28;19916;-84
2023/12/14 07:24:14;;;;;;;;;;;6.70;99.90;;;;;;5045375;28;19916;-78
2023/12/14 07:26:39;;;;;;;;;;;6.60;99.90;;;;;;5046007;28;19919;-78
2023/12/14 07:29:05;;;;;;;;;;;6.70;99.90;;;;;;5046366;28;19982;-79
2023/12/14 07:31:30;;;;;;;;;;;6.70;99.90;;;;;;5031468;28;19920;-78
2023/12/14 07:33:56;;;;;;;;;;;6.70;99.90;;;;;;5049388;28;19915;-77
2023/12/14 07:36:22;;;;;;;;;;;6.60;99.90;;;;;;5032571;28;19916;-78
2023/12/14 07:38:48;;;;;;;;;;;6.60;99.90;;;;;;5031882;28;19909;-79
2023/12/14 07:41:13;;;;;;;;;;;6.70;99.90;;;;;;5049605;28;19908;-79
2023/12/14 07:43:39;;;;;;;;;;;6.70;99.90;;;;;;5050272;28;19999;-78
2023/12/14 07:46:04;;;;;;;;;;;6.60;99.90;;;;;;5049997;28;20688;-78
2023/12/14 07:48:30;;;;;;;;;;;6.70;99.90;;;;;;5032276;28;20605;-78
2023/12/14 07:50:56;;;;;;;;;;;6.70;99.90;;;;;;5031695;28;20410;-78
2023/12/14 07:53:21;;;;;;;;;;;6.60;99.90;;;;;;5050020;28;20699;-78
2023/12/14 07:55:47;;;;;;;;;;;6.60;99.90;;;;;;5049489;28;19909;-78
2023/12/14 07:58:13;;;;;;;;;;;6.70;99.90;;;;;;5043845;28;19909;-77
2023/12/14 08:00:38;;;;;;;;;;;6.80;99.90;;;;;;5049270;28;19913;-78
2023/12/14 08:03:04;;;;;;;;;;;6.70;99.90;;;;;;5049379;28;19920;-79
2023/12/14 08:05:30;;;;;;;;;;;6.70;99.90;;;;;;5031735;28;19908;-78
2023/12/14 08:07:55;;;;;;;;;;;6.60;99.90;;;;;;5050126;28;19915;-78
2023/12/14 08:10:21;;;;;;;;;;;6.70;99.90;;;;;;5048458;28;20195;-77
2023/12/14 08:12:51;;;;;;;;;;;6.80;99.90;;;;;;5031582;28;19909;-78
2023/12/14 08:15:17;;;;;;;;;;;6.80;99.90;;;;;;5034424;28;19905;-78
2023/12/14 08:17:42;;;;;;;;;;;6.90;99.90;;;;;;5050403;28;19962;-78
2023/12/14 08:20:08;;;;;;;;;;;6.80;99.90;;;;;;5032049;28;19950;-78
2023/12/14 08:22:34;;;;;;;;;;;6.90;99.90;;;;;;5032378;28;19920;-77
2023/12/14 08:25:00;;;;;;;;;;;6.80;99.90;;;;;;5050160;28;19915;-78
2023/12/14 08:27:25;;;;;;;;;;;6.90;99.90;;;;;;5049768;28;19908;-78
2023/12/14 08:29:51;;;;;;;;;;;6.80;99.90;;;;;;5031236;28;19944;-79
2023/12/14 08:32:16;;;;;;;;;;;6.80;99.90;;;;;;5031505;28;20375;-77
2023/12/14 08:34:42;;;;;;;;;;;6.90;99.90;;;;;;5049702;28;20458;-78
2023/12/14 08:37:07;;;;;;;;;;;6.90;99.90;;;;;;5049007;28;20506;-78
2023/12/14 08:39:33;;;;;;;;;;;6.90;99.90;;;;;;5048042;28;19913;-78
2023/12/14 08:41:58;;;;;;;;;;;7.00;99.90;;;;;;5049293;28;19908;-78
2023/12/14 08:44:24;;;;;;;;;;;7.00;99.90;;;;;;5048636;28;19919;-78
2023/12/14 08:46:49;;;;;;;;;;;7.10;99.90;;;;;;5048932;28;19916;-78
2023/12/14 08:49:15;;;;;;;;;;;7.10;99.90;;;;;;5030614;28;20410;-77
2023/12/14 08:51:41;;;;;;;;;;;7.10;99.90;;;;;;5048997;28;19905;-78
2023/12/14 08:54:07;;;;;;;;;;;7.00;99.90;;;;;;5048574;28;19908;-78
2023/12/14 08:56:33;;;;;;;;;;;7.00;99.90;;;;;;5046519;28;20284;-78
2023/12/14 08:58:59;;;;;;;;;;;7.00;99.90;;;;;;5046373;28;20301;-78
2023/12/14 09:01:25;;;;;;;;;;;7.10;99.90;;;;;;5048927;28;19909;-77
2023/12/14 09:03:50;;;;;;;;;;;7.10;99.90;;;;;;5031387;28;19920;-76
2023/12/14 09:06:16;;;;;;;;;;;7.00;99.90;;;;;;5049100;28;20540;-78
2023/12/14 09:08:42;;;;;;;;;;;7.10;99.90;;;;;;5048783;28;19912;-78
2023/12/14 09:11:08;;;;;;;;;;;7.00;99.90;;;;;;5048461;28;19909;-78
2023/12/14 09:13:34;;;;;;;;;;;7.00;99.90;;;;;;5048557;28;20088;-79
2023/12/14 09:15:59;;;;;;;;;;;7.10;99.90;;;;;;5048700;28;20360;-78
2023/12/14 09:18:25;;;;;;;;;;;7.20;99.90;;;;;;5048797;28;19905;-78
2023/12/14 09:20:50;;;;;;;;;;;7.30;99.90;;;;;;5030794;28;19908;-78
2023/12/14 09:23:16;;;;;;;;;;;7.70;99.90;;;;;;5048886;28;19912;-77
2023/12/14 09:25:42;;;;;;;;;;;7.90;99.90;;;;;;5048344;28;19974;-78
2023/12/14 09:28:07;;;;;;;;;;;8.30;99.90;;;;;;5031117;28;20316;-77
2023/12/14 09:30:33;;;;;;;;;;;9.30;99.90;;;;;;5048342;28;19917;-78
2023/12/14 09:32:58;;;;;;;;;;;8.90;99.90;;;;;;5030479;28;19919;-78
2023/12/14 09:35:24;;;;;;;;;;;8.50;99.90;;;;;;5047805;28;19913;-77
2023/12/14 09:37:50;;;;;;;;;;;8.20;99.90;;;;;;5029691;28;19909;-78
2023/12/14 09:40:16;;;;;;;;;;;7.80;99.90;;;;;;5048726;28;20407;-78
2023/12/14 09:42:42;;;;;;;;;;;7.80;99.90;;;;;;5048561;28;19913;-77
2023/12/14 09:45:08;;;;;;;;;;;7.50;99.90;;;;;;5030266;28;19934;-79
2023/12/14 09:47:34;;;;;;;;;;;7.40;99.90;;;;;;5049292;28;19909;-78
2023/12/14 09:50:00;;;;;;;;;;;7.40;99.90;;;;;;5048601;28;19908;-78
2023/12/14 09:52:26;;;;;;;;;;;7.60;99.90;;;;;;5029372;28;19912;-78
2023/12/14 09:54:51;;;;;;;;;;;7.70;99.90;;;;;;5047275;28;19916;-79
2023/12/14 09:57:20;;;;;;;;;;;7.80;99.90;;;;;;5041635;28;19908;-78
2023/12/14 09:59:55;;;;;;;;;;;7.50;99.90;;;;;;5047675;28;19909;-78
2023/12/14 10:02:24;;;;;;;;;;;7.60;99.90;;;;;;5047836;28;20627;-79
2023/12/14 10:04:50;;;;;;;;;;;7.80;99.90;;;;;;5047578;28;19909;-79
2023/12/14 10:07:16;;;;;;;;;;;8.50;99.90;;;;;;5029861;28;20399;-78
2023/12/14 10:09:42;;;;;;;;;;;9.00;99.90;;;;;;5047548;28;19938;-79
2023/12/14 10:12:08;;;;;;;;;;;8.90;99.90;;;;;;5034263;28;20598;-78
2023/12/14 10:14:34;;;;;;;;;;;8.80;99.90;;;;;;5047332;28;19915;-78
2023/12/14 10:17:22;;;;;;;;;;;9.20;99.90;;;;;;5047449;28;20725;-79
2023/12/14 10:19:48;;;;;;;;;;;8.90;99.90;;;;;;5047475;28;20726;-78
2023/12/14 10:22:15;;;;;;;;;;;8.60;99.90;;;;;;5046977;28;19916;-79
2023/12/14 10:24:46;;;;;;;;;;;8.30;99.90;;;;;;5029221;28;19912;-79
2023/12/14 10:27:11;;;;;;;;;;;8.20;99.90;;;;;;5029781;28;19909;-79
2023/12/14 10:29:39;;;;;;;;;;;8.30;99.90;;;;;;5028537;28;19919;-79
2023/12/14 10:32:06;;;;;;;;;;;8.10;99.90;;;;;;5046942;28;19995;-78
2023/12/14 10:34:39;;;;;;;;;;;8.20;99.90;;;;;;5042676;28;19909;-79
2023/12/14 10:37:05;;;;;;;;;;;8.00;99.90;;;;;;5045617;28;19990;-78
2023/12/14 10:39:32;;;;;;;;;;;7.90;99.90;;;;;;5045937;28;19920;-78
2023/12/14 10:41:58;;;;;;;;;;;7.80;99.90;;;;;;5046863;28;19991;-78
2023/12/14 10:44:25;;;;;;;;;;;7.90;99.90;;;;;;5046754;28;20028;-79
2023/12/14 10:46:53;;;;;;;;;;;7.90;99.90;;;;;;5046846;28;19909;-78
2023/12/14 10:49:19;;;;;;;;;;;8.00;99.90;;;;;;5046362;28;19986;-78
2023/12/14 10:51:44;;;;;;;;;;;8.30;99.90;;;;;;5028663;28;19951;-78
2023/12/14 10:54:10;;;;;;;;;;;8.60;99.90;;;;;;5046282;28;19959;-78
2023/12/14 10:56:36;;;;;;;;;;;8.50;99.90;;;;;;5025173;28;19915;-77
2023/12/14 10:59:02;;;;;;;;;;;8.60;99.90;;;;;;5026053;28;19915;-78
2023/12/14 11:01:32;;;;;;;;;;;8.90;99.90;;;;;;5046944;28;19909;-78
2023/12/14 11:03:58;;;;;;;;;;;9.00;99.90;;;;;;5045905;28;19959;-78
2023/12/14 11:06:24;;;;;;;;;;;8.80;99.90;;;;;;5047078;28;19912;-78
2023/12/14 11:08:54;;;;;;;;;;;8.80;99.90;;;;;;5061345;28;19905;-78
2023/12/14 11:11:20;;;;;;;;;;;9.00;99.90;;;;;;5047230;28;19913;-78
2023/12/14 11:13:50;;;;;;;;;;;9.40;99.90;;;;;;5046434;28;20450;-78
2023/12/14 11:16:15;;;;;;;;;;;9.30;99.90;;;;;;5028317;28;20545;-78
2023/12/14 11:18:41;;;;;;;;;;;9.80;99.90;;;;;;5028164;28;19908;-78
2023/12/14 11:21:06;;;;;;;;;;;9.70;99.90;;;;;;5046273;28;19948;-77
2023/12/14 11:23:33;;;;;;;;;;;9.70;99.90;;;;;;5028269;28;19964;-78
2023/12/14 11:26:19;;;;;;;;;;;9.50;99.90;;;;;;5046256;28;20023;-77
2023/12/14 11:28:45;;;;;;;;;;;9.60;99.90;;;;;;5028051;28;19912;-77
2023/12/14 11:31:12;;;;;;;;;;;9.70;99.90;;;;;;5046183;28;19954;-77
2023/12/14 11:33:37;;;;;;;;;;;9.40;99.90;;;;;;5028627;28;19916;-77
2023/12/14 11:36:03;;;;;;;;;;;9.00;99.90;;;;;;5046370;28;19909;-77
2023/12/14 11:38:29;;;;;;;;;;;8.90;99.90;;;;;;5046319;28;19913;-77
2023/12/14 11:40:55;;;;;;;;;;;9.30;99.90;;;;;;5046356;28;19909;-78
2023/12/14 11:43:21;;;;;;;;;;;9.30;99.90;;;;;;5028452;28;19917;-78
2023/12/14 11:45:47;;;;;;;;;;;9.10;99.90;;;;;;5028124;28;19916;-77
2023/12/14 11:48:13;;;;;;;;;;;9.00;99.90;;;;;;5045959;28;19908;-77
2023/12/14 11:50:39;;;;;;;;;;;8.80;99.90;;;;;;5027125;28;19909;-77
2023/12/14 11:53:05;;;;;;;;;;;8.50;99.90;;;;;;5028141;28;20597;-77
2023/12/14 11:55:30;;;;;;;;;;;8.20;99.90;;;;;;5045787;28;19909;-78
2023/12/14 11:57:57;;;;;;;;;;;8.10;99.90;;;;;;5040690;28;19905;-78
2023/12/14 12:00:23;;;;;;;;;;;8.00;99.90;;;;;;5028387;28;20059;-78
2023/12/14 12:02:48;;;;;;;;;;;8.30;99.90;;;;;;5028893;28;19991;-78
2023/12/14 12:05:18;;;;;;;;;;;8.50;99.90;;;;;;5028104;28;19976;-78
2023/12/14 12:07:46;;;;;;;;;;;8.50;99.90;;;;;;5046290;28;19908;-78
2023/12/14 12:10:12;;;;;;;;;;;8.50;99.90;;;;;;5042180;28;19987;-78
2023/12/14 12:12:38;;;;;;;;;;;8.30;99.90;;;;;;5046349;28;20035;-78
2023/12/14 12:15:04;;;;;;;;;;;8.20;99.90;;;;;;5062650;28;19909;-78
2023/12/14 12:17:29;;;;;;;;;;;8.40;99.90;;;;;;5046257;28;20514;-77
2023/12/14 12:19:55;;;;;;;;;;;8.50;99.90;;;;;;5031558;28;20462;-78
2023/12/14 12:22:20;;;;;;;;;;;8.60;99.90;;;;;;5049947;28;19951;-77
2023/12/14 12:24:46;;;;;;;;;;;8.40;99.90;;;;;;5049705;28;20473;-77
2023/12/14 12:27:11;;;;;;;;;;;8.50;99.90;;;;;;5049489;28;20474;-77
2023/12/14 12:29:37;;;;;;;;;;;8.40;99.90;;;;;;5049492;28;19912;-77
2023/12/14 12:32:03;;;;;;;;;;;8.30;99.90;;;;;;5031304;28;19921;-78
2023/12/14 12:34:28;;;;;;;;;;;8.60;99.90;;;;;;5049379;28;19908;-77
2023/12/14 12:36:54;;;;;;;;;;;8.70;99.90;;;;;;5048938;28;20436;-77
2023/12/14 12:39:20;;;;;;;;;;;8.70;99.90;;;;;;5049005;28;19913;-77
2023/12/14 12:41:45;;;;;;;;;;;8.70;99.90;;;;;;5049207;28;19916;-77
2023/12/14 12:44:11;;;;;;;;;;;8.80;99.90;;;;;;5049057;28;19913;-77
2023/12/14 12:46:37;;;;;;;;;;;8.80;99.90;;;;;;5030757;28;20691;-78
2023/12/14 12:49:04;;;;;;;;;;;8.70;99.90;;;;;;5048816;28;19905;-77
2023/12/14 12:51:30;;;;;;;;;;;8.80;99.90;;;;;;5048512;28;19909;-77
2023/12/14 12:53:57;;;;;;;;;;;8.70;99.90;;;;;;5048609;28;19936;-78
2023/12/14 12:56:23;;;;;;;;;;;8.80;99.90;;;;;;5047297;28;19909;-78
2023/12/14 12:58:49;;;;;;;;;;;8.50;99.50;;;;;;5044628;28;19909;-77
2023/12/14 13:01:15;;;;;;;;;;;8.30;99.90;;;;;;5048532;28;19955;-78
2023/12/14 13:03:41;;;;;;;;;;;8.30;99.90;;;;;;5048162;28;19966;-77
2023/12/14 13:06:06;;;;;;;;;;;8.20;99.90;;;;;;5030768;28;19912;-78
2023/12/14 13:08:32;;;;;;;;;;;8.50;99.90;;;;;;5048384;28;19912;-78
2023/12/14 13:10:57;;;;;;;;;;;8.70;99.90;;;;;;5048349;28;19916;-77
2023/12/14 13:13:23;;;;;;;;;;;8.60;99.90;;;;;;5048036;28;20609;-77
2023/12/14 13:15:49;;;;;;;;;;;9.00;99.90;;;;;;5025936;28;20654;-78
2023/12/14 13:18:16;;;;;;;;;;;9.10;99.90;;;;;;5048325;28;19909;-77
2023/12/14 13:20:42;;;;;;;;;;;9.20;99.90;;;;;;5048700;28;19985;-77
2023/12/14 13:23:08;;;;;;;;;;;9.00;99.90;;;;;;5048452;28;19972;-78
2023/12/14 13:25:33;;;;;;;;;;;8.80;99.90;;;;;;5029668;28;19913;-77
2023/12/14 13:27:59;;;;;;;;;;;8.60;99.90;;;;;;5047758;28;19909;-78
2023/12/14 13:30:25;;;;;;;;;;;8.60;99.90;;;;;;5047833;28;19947;-77
2023/12/14 13:32:50;;;;;;;;;;;8.50;99.90;;;;;;5048985;28;19921;-78
2023/12/14 13:35:16;;;;;;;;;;;8.30;99.90;;;;;;5030583;28;20446;-78
2023/12/14 13:37:42;;;;;;;;;;;8.10;99.90;;;;;;5048084;28;19909;-77
2023/12/14 13:40:09;;;;;;;;;;;8.10;99.90;;;;;;5030784;28;20680;-78
2023/12/14 13:42:35;;;;;;;;;;;8.20;99.90;;;;;;5048975;28;19938;-77
2023/12/14 13:45:00;;;;;;;;;;;8.00;99.90;;;;;;5048525;28;19991;-78
2023/12/14 13:47:26;;;;;;;;;;;8.10;99.90;;;;;;5048452;28;19915;-78
2023/12/14 13:49:53;;;;;;;;;;;8.40;99.90;;;;;;5047785;28;19909;-78
2023/12/14 13:52:18;;;;;;;;;;;8.50;99.90;;;;;;5047467;28;19982;-77
2023/12/14 13:54:44;;;;;;;;;;;8.50;99.90;;;;;;5048161;28;19930;-77
2023/12/14 13:57:09;;;;;;;;;;;8.50;99.90;;;;;;5042819;28;20651;-77
2023/12/14 13:59:35;;;;;;;;;;;8.50;99.90;;;;;;5048094;28;20452;-78
2023/12/14 14:02:00;;;;;;;;;;;8.40;99.90;;;;;;5048064;28;20399;-79
2023/12/14 14:04:26;;;;;;;;;;;8.30;99.90;;;;;;5047925;28;20383;-78
2023/12/14 14:06:51;;;;;;;;;;;8.10;99.90;;;;;;5048057;28;20766;-78
2023/12/14 14:09:17;;;;;;;;;;;8.10;99.90;;;;;;5030104;28;20299;-78
2023/12/14 14:11:47;;;;;;;;;;;8.10;99.90;;;;;;5048111;28;20758;-78
2023/12/14 14:14:12;;;;;;;;;;;8.10;99.90;;;;;;5047496;28;20426;-78
2023/12/14 14:16:38;;;;;;;;;;;8.10;99.90;;;;;;5030065;28;19944;-77
2023/12/14 14:19:04;;;;;;;;;;;7.80;99.90;;;;;;5047646;28;19909;-78
2023/12/14 14:21:30;;;;;;;;;;;7.90;99.90;;;;;;5047320;28;19909;-78
2023/12/14 14:23:55;;;;;;;;;;;7.90;99.90;;;;;;5046879;28;19912;-77